Time;durP1;ratioP1;P1;durP2;ratioP2;P2;SDS_P1;SDS_P2;PMS_P1;PMS_P2;Temp;Humidity;BMP_temperature;BMP_pressure;BME280_temperature;BME280_humidity;BME280_pressure;Samples;Min_cycle;Max_cycle;Signal;HPM_P1;HPM_P2
2021/05/07 00:01:46;;;;;;;3.97;2.87;;;;;;;9.31;42.81;100007.88;1604352;87;21095;-85
2021/05/07 00:04:19;;;;;;;5.60;2.90;;;;;;;9.23;43.05;100008.48;1610610;87;21779;-86
2021/05/07 00:06:48;;;;;;;3.90;3.03;;;;;;;9.13;43.13;100018.91;1611933;88;21585;-85
2021/05/07 00:09:15;;;;;;;5.97;3.27;;;;;;;9.06;43.55;100018.52;1604105;87;21186;-85
2021/05/07 00:11:42;;;;;;;8.20;3.10;;;;;;;8.97;43.70;100009.84;1603255;88;21096;-85
2021/05/07 00:14:10;;;;;;;3.20;2.87;;;;;;;8.89;43.64;100013.91;1598260;89;21254;-84
2021/05/07 00:16:37;;;;;;;6.20;3.50;;;;;;;8.84;43.83;100016.33;1590415;89;21232;-85
2021/05/07 00:19:06;;;;;;;3.57;3.27;;;;;;;8.79;43.72;100009.41;1598184;89;21199;-86
2021/05/07 00:21:35;;;;;;;4.63;3.60;;;;;;;8.74;43.58;100010.78;1602182;89;21543;-85
2021/05/07 00:24:05;;;;;;;6.90;3.13;;;;;;;8.73;44.21;100015.77;1622748;87;21736;-86
2021/05/07 00:26:33;;;;;;;3.60;3.00;;;;;;;8.73;44.79;100017.61;1628535;87;21189;-84
2021/05/07 00:29:01;;;;;;;5.40;3.20;;;;;;;8.70;44.48;100006.84;1629650;87;21173;-85
2021/05/07 00:31:28;;;;;;;8.53;3.83;;;;;;;8.71;44.39;100009.81;1622707;87;21639;-85
2021/05/07 00:33:55;;;;;;;7.97;3.40;;;;;;;8.72;44.85;100005.31;1618669;87;21317;-84
2021/05/07 00:36:22;;;;;;;6.40;4.07;;;;;;;8.71;45.21;99999.18;1615686;88;21214;-84
2021/05/07 00:38:49;;;;;;;7.87;2.73;;;;;;;8.72;45.63;100000.00;1619971;87;21339;-84
2021/05/07 00:41:17;;;;;;;8.83;3.80;;;;;;;8.72;45.82;99998.67;1619894;87;21736;-84
2021/05/07 00:43:45;;;;;;;6.23;3.50;;;;;;;8.71;46.09;99992.54;1620033;87;21206;-84
2021/05/07 00:46:12;;;;;;;5.83;3.87;;;;;;;8.72;46.12;99989.37;1634035;87;21291;-84
2021/05/07 00:48:40;;;;;;;3.97;3.23;;;;;;;8.72;45.72;99983.57;1632262;87;21736;-84
2021/05/07 00:51:07;;;;;;;4.43;3.47;;;;;;;8.74;46.29;99982.88;1621629;87;21350;-86
2021/05/07 00:53:35;;;;;;;3.97;3.30;;;;;;;8.75;46.66;99987.69;1619975;87;21224;-84
2021/05/07 00:56:03;;;;;;;4.57;3.60;;;;;;;8.75;46.83;99981.85;1625745;87;21129;-85
2021/05/07 00:58:31;;;;;;;6.90;4.03;;;;;;;8.76;46.89;99984.03;1618868;87;21776;-83
2021/05/07 01:00:59;;;;;;;5.80;3.30;;;;;;;8.75;47.06;99986.35;1607301;87;21133;-83
2021/05/07 01:03:27;;;;;;;7.77;4.33;;;;;;;8.73;47.37;99990.52;1604914;88;21671;-84
2021/05/07 01:05:56;;;;;;;9.10;3.87;;;;;;;8.72;47.95;99990.22;1590027;88;21233;-82
2021/05/07 01:08:24;;;;;;;5.47;4.17;;;;;;;8.69;48.41;99993.23;1595560;88;21229;-85
2021/05/07 01:10:57;;;;;;;13.87;4.00;;;;;;;8.66;48.59;99990.93;1568662;90;21369;-86
2021/05/07 01:13:25;;;;;;;6.80;4.47;;;;;;;8.61;48.75;99985.37;1620122;87;21190;-85
2021/05/07 01:15:54;;;;;;;6.83;4.77;;;;;;;8.56;49.20;99989.07;1622710;87;21771;-85
2021/05/07 01:18:23;;;;;;;6.10;4.07;;;;;;;8.50;49.54;99991.95;1621709;87;21369;-85
2021/05/07 01:20:51;;;;;;;8.50;5.20;;;;;;;8.45;49.79;99985.03;1619870;87;21351;-84
2021/05/07 01:23:18;;;;;;;10.60;5.93;;;;;;;8.41;50.07;99986.89;1624916;87;21155;-85
2021/05/07 01:25:46;;;;;;;14.50;10.27;;;;;;;8.37;50.85;99989.09;1618577;87;21187;-84
2021/05/07 01:28:14;;;;;;;17.03;10.67;;;;;;;8.31;50.74;99990.64;1619538;87;21352;-84
2021/05/07 01:30:46;;;;;;;16.10;9.00;;;;;;;8.27;50.51;99993.82;1615470;87;21224;-84
2021/05/07 01:33:17;;;;;;;16.43;10.17;;;;;;;8.25;50.96;99990.05;1625092;87;21233;-84
2021/05/07 01:35:49;;;;;;;24.10;12.97;;;;;;;8.22;51.34;99989.07;1620540;87;21214;-85
2021/05/07 01:38:18;;;;;;;20.30;13.50;;;;;;;8.19;51.27;99992.92;1624067;87;21194;-84
2021/05/07 01:40:49;;;;;;;18.57;14.13;;;;;;;8.16;51.25;99988.47;1624729;87;21343;-84
2021/05/07 01:43:17;;;;;;;23.23;16.70;;;;;;;8.15;51.57;99982.83;1619413;88;21321;-84
2021/05/07 01:45:47;;;;;;;23.67;17.77;;;;;;;8.11;51.57;99982.88;1624608;85;21136;-86
2021/05/07 01:48:17;;;;;;;25.70;18.33;;;;;;;8.10;51.53;99981.21;1622634;87;21322;-85
2021/05/07 01:50:47;;;;;;;26.13;18.97;;;;;;;8.09;51.78;99984.89;1624209;87;21662;-85
2021/05/07 01:53:16;;;;;;;28.77;18.70;;;;;;;8.07;51.76;99978.42;1624997;87;21198;-87
2021/05/07 01:55:47;;;;;;;26.10;19.50;;;;;;;8.07;51.94;99987.72;1626889;86;21115;-85
2021/05/07 01:58:36;;;;;;;27.95;18.80;;;;;;;8.11;52.04;99982.88;1823083;77;23052;-85
2021/05/07 02:01:03;;;;;;;27.10;18.87;;;;;;;8.07;52.09;99996.19;1781680;78;21216;-84
2021/05/07 02:03:30;;;;;;;25.83;19.43;;;;;;;8.04;52.68;99993.37;1757548;80;21475;-84
2021/05/07 02:06:00;;;;;;;23.43;18.47;;;;;;;8.02;52.85;99995.39;1754183;80;21386;-86
2021/05/07 02:08:27;;;;;;;23.37;17.70;;;;;;;7.95;53.09;99999.79;1755733;80;21357;-85
2021/05/07 02:10:54;;;;;;;28.50;20.20;;;;;;;7.88;53.30;100006.81;1760894;80;21655;-85
2021/05/07 02:13:21;;;;;;;27.13;19.27;;;;;;;7.82;53.66;100006.17;1767027;80;21402;-86
2021/05/07 02:15:50;;;;;;;23.43;17.07;;;;;;;7.74;53.92;100003.09;1741165;80;21191;-86
2021/05/07 02:18:19;;;;;;;23.43;16.97;;;;;;;7.71;53.92;100009.59;1738460;80;21178;-86
2021/05/07 02:20:49;;;;;;;19.13;14.23;;;;;;;7.71;54.10;100010.09;1774284;80;21328;-85
2021/05/07 02:23:16;;;;;;;21.33;14.33;;;;;;;7.72;54.24;100020.53;1739679;80;21103;-84
2021/05/07 02:25:45;;;;;;;21.43;14.53;;;;;;;7.73;53.78;100015.53;1742698;81;21214;-84
2021/05/07 02:28:14;;;;;;;17.50;14.33;;;;;;;7.78;53.92;100018.49;1738567;81;21356;-84
2021/05/07 02:30:42;;;;;;;20.97;14.30;;;;;;;7.82;54.00;100018.97;1735471;81;21154;-85
2021/05/07 02:33:09;;;;;;;19.00;15.10;;;;;;;7.84;53.98;100014.30;1734956;81;21189;-84
2021/05/07 02:35:37;;;;;;;20.93;15.13;;;;;;;7.84;54.31;100016.95;1759498;79;21334;-83
2021/05/07 02:38:05;;;;;;;21.47;14.57;;;;;;;7.84;54.28;100018.79;1763563;80;21146;-84
2021/05/07 02:40:32;;;;;;;16.63;12.83;;;;;;;7.82;53.92;100016.31;1761278;80;21347;-83
2021/05/07 02:43:00;;;;;;;14.07;11.57;;;;;;;7.85;53.29;100018.59;1755150;80;21185;-84
2021/05/07 02:45:29;;;;;;;17.00;12.43;;;;;;;7.88;52.59;100018.24;1756573;79;21092;-84
2021/05/07 02:47:56;;;;;;;15.40;11.43;;;;;;;7.95;52.66;100018.37;1757416;80;21816;-83
2021/05/07 02:50:23;;;;;;;13.77;11.13;;;;;;;8.04;52.00;100017.77;1758318;80;21184;-82
2021/05/07 02:52:50;;;;;;;13.43;11.23;;;;;;;8.22;51.62;100026.24;1751609;80;21302;-81
2021/05/07 02:55:17;;;;;;;13.30;11.20;;;;;;;8.57;50.22;100016.78;1739735;81;21345;-82
2021/05/07 02:57:45;;;;;;;16.77;10.53;;;;;;;8.96;49.00;100019.63;1713081;82;21277;-85
2021/05/07 03:00:15;;;;;;;10.67;9.57;;;;;;;9.33;48.08;100018.34;1709302;82;21197;-82
2021/05/07 03:02:41;;;;;;;12.87;9.13;;;;;;;9.70;47.54;100017.77;1733125;80;21614;-83
2021/05/07 03:05:09;;;;;;;18.33;11.30;;;;;;;10.03;46.05;100011.93;1752638;80;21326;-84
2021/05/07 03:07:36;;;;;;;12.33;10.20;;;;;;;10.21;46.18;100006.95;1756319;80;21325;-85
2021/05/07 03:10:05;;;;;;;14.20;10.33;;;;;;;10.20;45.80;100003.96;1733212;80;21182;-84
2021/05/07 03:12:33;;;;;;;11.57;8.93;;;;;;;10.02;46.07;100010.27;1722814;81;21119;-82
2021/05/07 03:15:00;;;;;;;12.20;8.50;;;;;;;9.84;46.00;100011.56;1718495;83;21606;-83
2021/05/07 03:17:28;;;;;;;9.63;8.33;;;;;;;9.80;46.30;100015.62;1677317;85;22189;-82
2021/05/07 03:19:56;;;;;;;10.87;8.13;;;;;;;9.87;46.28;100015.19;1664373;84;21159;-83
2021/05/07 03:22:23;;;;;;;12.50;7.63;;;;;;;9.82;45.33;100016.26;1659313;84;21415;-83
2021/05/07 03:24:51;;;;;;;14.37;8.63;;;;;;;9.75;45.07;100018.03;1685829;83;21179;-85
2021/05/07 03:27:19;;;;;;;12.07;8.50;;;;;;;9.71;45.50;100026.08;1688606;83;21306;-83
2021/05/07 03:29:46;;;;;;;13.33;7.10;;;;;;;9.65;45.59;100020.20;1700679;83;21188;-83
2021/05/07 03:32:14;;;;;;;9.33;8.00;;;;;;;9.64;45.56;100023.86;1698707;84;21199;-82
2021/05/07 03:34:41;;;;;;;10.33;6.93;;;;;;;9.98;45.27;100020.99;1682778;83;22019;-83
2021/05/07 03:37:09;;;;;;;8.53;7.03;;;;;;;10.51;44.28;100026.25;1690346;83;21374;-82
2021/05/07 03:39:35;;;;;;;7.97;6.67;;;;;;;11.13;43.03;100025.52;1678690;84;21213;-83
2021/05/07 03:42:03;;;;;;;12.90;6.83;;;;;;;11.56;42.41;100025.23;1688794;84;21195;-81
2021/05/07 03:44:30;;;;;;;10.47;7.27;;;;;;;11.56;42.03;100030.05;1696923;82;21088;-83
2021/05/07 03:46:57;;;;;;;10.93;6.43;;;;;;;11.38;42.36;100031.97;1687124;83;21176;-82
2021/05/07 03:49:25;;;;;;;10.83;6.20;;;;;;;11.17;42.45;100036.09;1691817;84;21191;-84
2021/05/07 03:51:52;;;;;;;9.77;6.70;;;;;;;11.13;42.38;100029.52;1688158;83;21190;-82
2021/05/07 03:54:19;;;;;;;7.83;6.33;;;;;;;11.28;42.25;100031.51;1698320;83;21211;-83
2021/05/07 03:56:46;;;;;;;9.20;6.23;;;;;;;11.47;41.46;100034.77;1700384;83;21124;-82
2021/05/07 03:59:14;;;;;;;8.83;4.90;;;;;;;11.81;40.72;100022.30;1699161;83;21184;-83
2021/05/07 04:01:41;;;;;;;9.47;5.57;;;;;;;12.06;39.43;100024.39;1708003;83;21138;-83
2021/05/07 04:04:12;;;;;;;9.93;6.00;;;;;;;12.07;40.33;100029.54;1708899;83;21226;-86
2021/05/07 04:06:39;;;;;;;14.00;5.53;;;;;;;12.02;40.69;100033.85;1681097;83;21330;-86
2021/05/07 04:14:15;;;;;;;6.72;5.75;;;;;;;11.94;40.09;100038.04;1654019;85;21237;-86
2021/05/07 04:16:44;;;;;;;7.90;5.03;;;;;;;11.99;39.86;100047.08;1654070;85;21221;-85
2021/05/07 04:19:12;;;;;;;7.93;5.53;;;;;;;11.82;39.69;100041.80;1636161;86;21733;-86
2021/05/07 04:21:40;;;;;;;8.70;5.40;;;;;;;11.70;39.88;100038.92;1655763;85;21228;-86
2021/05/07 04:24:08;;;;;;;9.47;5.53;;;;;;;11.61;39.87;100041.47;1683427;84;21282;-87
2021/05/07 04:26:36;;;;;;;8.33;4.63;;;;;;;11.54;39.80;100038.77;1682916;84;21202;-85
2021/05/07 04:29:03;;;;;;;12.67;5.63;;;;;;;11.86;39.13;100038.52;1685072;84;21336;-86
2021/05/07 04:31:39;;;;;;;6.53;4.93;;;;;;;11.94;38.88;100046.05;1696203;84;21183;-88
2021/05/07 04:34:06;;;;;;;27.30;4.93;;;;;;;11.82;39.02;100037.28;1696708;81;21098;-86
2021/05/07 04:36:34;;;;;;;9.68;5.05;;;;;;;11.98;38.81;100048.62;1684314;84;21206;-87
2021/05/07 04:39:07;;;;;;;6.77;4.37;;;;;;;12.62;37.82;100037.28;1680225;84;21145;-87
2021/05/07 04:41:47;;;;;;;7.25;4.55;;;;;;;13.13;36.62;100042.38;1685760;84;21541;-87
2021/05/07 04:44:14;;;;;;;4.00;3.40;;;;;;;13.57;35.86;100041.26;1683130;80;21876;-86
2021/05/07 04:46:49;;;;;;;4.30;3.35;;;;;;;14.15;34.61;100042.39;1690826;84;21222;-88
2021/05/07 04:49:11;;;;;;;8.28;3.12;;;;;;;14.46;33.36;100038.51;1652630;85;21210;-85
2021/05/07 04:51:39;;;;;;;6.83;3.40;;;;;;;14.19;33.66;100030.19;1643970;86;21242;-88
2021/05/07 04:54:09;;;;;;;3.62;3.02;;;;;;;13.78;34.49;100036.88;1621263;86;21871;-88
2021/05/07 04:56:36;;;;;;;5.42;3.58;;;;;;;13.34;35.67;100041.28;1643248;86;21117;-89
2021/05/07 04:59:03;;;;;;;6.83;4.42;;;;;;;13.01;36.37;100037.37;1641745;86;21166;-87
2021/05/07 05:01:31;;;;;;;6.08;3.25;;;;;;;12.74;36.75;100032.63;1640421;84;21200;-88
2021/05/07 05:03:58;;;;;;;8.40;3.45;;;;;;;12.65;37.27;100031.50;1642242;86;21242;-90
2021/05/07 05:06:32;;;;;;;4.20;2.92;;;;;;;12.87;36.88;100028.58;1655061;86;21772;-88
2021/05/07 05:09:00;;;;;;;11.38;3.20;;;;;;;13.52;35.71;100031.70;1638952;86;21220;-90
2021/05/07 05:11:28;;;;;;;9.58;3.22;;;;;;;14.14;35.27;100030.54;1646828;84;21115;-86
2021/05/07 05:13:55;;;;;;;7.33;3.37;;;;;;;14.63;33.26;100025.38;1649777;85;21190;-88
2021/05/07 05:16:22;;;;;;;9.33;3.40;;;;;;;14.63;33.39;100020.01;1649889;85;21213;-87
2021/05/07 05:18:49;;;;;;;4.65;2.83;;;;;;;14.40;33.10;100017.42;1649127;85;21190;-85
2021/05/07 05:21:17;;;;;;;8.23;3.25;;;;;;;14.16;33.22;100009.70;1649785;85;21238;-87
2021/05/07 05:23:47;;;;;;;8.33;3.33;;;;;;;14.19;33.91;100021.33;1625123;83;21123;-88
2021/05/07 05:26:14;;;;;;;7.20;2.08;;;;;;;14.47;33.38;100012.81;1621464;87;21219;-88
2021/05/07 05:28:41;;;;;;;4.20;2.80;;;;;;;14.68;33.18;100018.30;1618830;87;21222;-89
2021/05/07 05:31:09;;;;;;;3.50;2.62;;;;;;;14.74;33.25;100016.05;1621786;87;21178;-89
2021/05/07 05:33:38;;;;;;;4.35;2.83;;;;;;;15.02;32.74;100021.95;1599900;87;21111;-89
2021/05/07 05:36:06;;;;;;;6.20;2.85;;;;;;;15.51;31.94;100013.34;1637742;86;21781;-88
2021/05/07 05:38:33;;;;;;;4.53;3.10;;;;;;;15.99;31.30;100025.04;1610150;88;22054;-91
2021/05/07 05:41:00;;;;;;;5.55;2.52;;;;;;;16.24;31.32;100026.20;1610226;88;21236;-90
2021/05/07 05:43:28;;;;;;;4.85;3.62;;;;;;;16.37;31.90;100023.27;1620534;87;21218;-90
2021/05/07 05:45:55;;;;;;;8.80;3.17;;;;;;;16.76;31.17;100019.53;1642691;85;21331;-89
2021/05/07 05:48:23;;;;;;;6.28;3.05;;;;;;;17.08;30.12;100021.83;1671752;84;21712;-90
2021/05/07 05:50:53;;;;;;;4.05;2.47;;;;;;;17.12;29.81;100019.78;1646876;85;21419;-89
2021/05/07 05:53:21;;;;;;;2.95;1.47;;;;;;;17.16;30.78;100024.67;1650317;85;21191;-89
2021/05/07 05:55:48;;;;;;;2.33;1.37;;;;;;;17.34;27.74;100022.33;1648033;84;21132;-91
2021/05/07 05:58:16;;;;;;;4.10;1.50;;;;;;;17.60;28.33;100020.39;1625899;87;21226;-88
2021/05/07 06:00:43;;;;;;;5.30;2.05;;;;;;;17.75;27.30;100022.53;1612450;87;21515;-89
2021/05/07 06:03:10;;;;;;;10.40;1.50;;;;;;;17.88;27.89;100014.70;1596562;88;21361;-89
2021/05/07 06:05:39;;;;;;;3.22;2.08;;;;;;;17.83;27.54;100025.36;1598632;88;21215;-89
2021/05/07 06:08:06;;;;;;;6.72;1.37;;;;;;;17.73;28.30;100029.24;1594749;88;21272;-88
2021/05/07 06:10:34;;;;;;;5.15;0.70;;;;;;;17.34;27.05;100008.86;1579285;88;21192;-90
2021/05/07 06:27:21;;;;;;;5.72;1.70;;;;;;;14.78;32.21;100027.16;1756156;79;26798;-85
2021/05/07 06:30:26;;;;;;;;;;;;;;;;;;;;;
2021/05/07 06:54:27;;;;;;;1.35;1.20;;;;;;;14.34;35.67;100016.97;1766454;79;22675;-83
2021/05/07 06:57:28;;;;;;;4.80;1.52;;;;;;;14.26;35.82;100021.25;1751911;78;21157;-93
2021/05/07 07:00:06;;;;;;;4.62;1.35;;;;;;;14.36;35.92;100021.59;1788703;78;23540;-77
2021/05/07 07:02:51;;;;;;;3.75;1.20;;;;;;;14.39;36.25;100027.83;1778595;80;21172;-77
2021/05/07 07:05:18;;;;;;;2.00;1.07;;;;;;;14.50;36.27;100019.05;1718870;82;21688;-75
2021/05/07 07:07:47;;;;;;;7.60;1.60;;;;;;;14.60;36.13;100013.23;1712483;82;21264;-76
2021/05/07 07:10:16;;;;;;;2.17;1.17;;;;;;;14.66;35.90;100011.52;1721459;82;21895;-77
2021/05/07 07:12:43;;;;;;;5.20;1.62;;;;;;;14.70;35.57;100001.98;1680126;80;21558;-76
2021/05/07 07:15:12;;;;;;;6.08;1.17;;;;;;;14.77;35.27;100009.44;1683224;83;21219;-77
2021/05/07 07:17:39;;;;;;;3.70;1.47;;;;;;;14.90;35.10;100002.58;1686477;83;21275;-77
2021/05/07 07:20:08;;;;;;;3.22;1.47;;;;;;;15.03;34.71;99996.23;1685210;83;21188;-77
2021/05/07 07:22:36;;;;;;;4.97;0.82;;;;;;;15.08;33.56;99996.35;1688611;83;21239;-79
2021/05/07 07:25:04;;;;;;;3.52;1.30;;;;;;;15.11;33.55;100000.47;1669683;85;21309;-78
2021/05/07 07:27:35;;;;;;;2.40;0.85;;;;;;;15.06;33.77;99994.41;1662064;85;21650;-80
2021/05/07 07:30:03;;;;;;;3.67;1.57;;;;;;;15.03;33.98;99996.23;1656049;85;21804;-78
2021/05/07 07:32:31;;;;;;;2.02;0.80;;;;;;;15.10;34.19;99992.10;1663926;85;21312;-81
2021/05/07 07:35:02;;;;;;;5.75;1.17;;;;;;;15.16;33.77;99997.40;1670808;82;21097;-81
2021/05/07 07:37:27;;;;;;;4.60;0.60;;;;;;;15.25;33.29;100003.25;1663574;85;21159;-81
2021/05/07 07:40:01;;;;;;;5.00;1.00;;;;;;;15.28;32.53;100001.47;1662516;85;21162;-85
2021/05/07 07:42:29;;;;;;;6.25;1.35;;;;;;;15.32;32.60;99988.41;1666300;85;21171;-83
2021/05/07 07:44:58;;;;;;;2.20;0.60;;;;;;;15.38;32.94;99984.27;1666891;84;21561;-81
2021/05/07 07:47:31;;;;;;;8.50;0.75;;;;;;;15.50;32.95;99983.48;1660917;85;21677;-81
2021/05/07 07:49:58;;;;;;;1.10;0.20;;;;;;;15.57;31.54;99983.68;1659077;85;21365;-80
2021/05/07 07:52:26;;;;;;;3.77;0.60;;;;;;;15.58;31.75;99976.46;1660229;85;21231;-81
2021/05/07 07:54:52;;;;;;;2.87;0.62;;;;;;;15.61;31.55;99980.02;1671901;85;21349;-81
2021/05/07 07:57:21;;;;;;;2.33;0.60;;;;;;;15.60;31.37;99979.73;1660226;84;21125;-81
2021/05/07 07:59:50;;;;;;;1.75;0.45;;;;;;;15.63;31.69;99977.10;1640221;86;21204;-80
2021/05/07 08:02:17;;;;;;;3.40;0.37;;;;;;;15.64;31.75;99972.03;1710754;82;21369;-79
2021/05/07 08:04:44;;;;;;;3.05;0.47;;;;;;;15.68;31.48;99969.18;1714757;82;21248;-81
2021/05/07 08:07:14;;;;;;;3.27;0.55;;;;;;;15.73;31.46;99969.31;1694007;83;21208;-83
2021/05/07 08:09:44;;;;;;;3.72;0.42;;;;;;;15.82;31.31;99963.89;1677299;84;21682;-82
2021/05/07 08:12:12;;;;;;;2.70;0.40;;;;;;;15.86;31.01;99969.13;1681706;84;21128;-78
2021/05/07 08:14:40;;;;;;;4.03;0.90;;;;;;;15.94;31.08;99958.55;1679799;84;21223;-80
2021/05/07 08:17:11;;;;;;;5.40;0.60;;;;;;;15.99;30.90;99957.84;1683913;84;21730;-78
2021/05/07 08:19:39;;;;;;;1.77;0.25;;;;;;;15.99;30.37;99969.41;1691010;84;21189;-80
2021/05/07 08:22:07;;;;;;;1.20;0.30;;;;;;;16.03;30.66;99959.00;1709065;82;22142;-78
2021/05/07 08:24:34;;;;;;;3.40;0.30;;;;;;;16.03;30.43;99953.13;1676917;84;21379;-81
2021/05/07 08:27:05;;;;;;;3.35;0.28;;;;;;;16.02;30.06;99962.76;1710754;82;21195;-76
2021/05/07 08:29:34;;;;;;;1.55;0.50;;;;;;;16.03;30.20;99964.38;1715534;82;21184;-81
2021/05/07 08:32:01;;;;;;;1.75;0.20;;;;;;;16.03;30.31;99970.59;1710593;82;21308;-79
2021/05/07 08:34:28;;;;;;;6.80;0.40;;;;;;;15.94;30.66;99947.80;1675436;84;21500;-81
2021/05/07 08:36:55;;;;;;;3.62;0.20;;;;;;;15.89;30.64;99938.27;1710102;83;21168;-78
2021/05/07 08:39:22;;;;;;;1.32;0.20;;;;;;;15.91;30.40;99946.91;1700057;83;21391;-78
2021/05/07 08:41:50;;;;;;;0.40;0.25;;;;;;;15.94;30.56;99939.20;1703221;83;21742;-81
2021/05/07 08:44:18;;;;;;;2.40;0.30;;;;;;;15.92;30.71;99945.88;1700732;83;21177;-83
2021/05/07 08:46:46;;;;;;;2.17;0.40;;;;;;;15.96;31.11;99947.85;1699228;83;21219;-81
2021/05/07 08:49:18;;;;;;;5.55;0.45;;;;;;;16.01;31.12;99949.86;1692872;83;21659;-79
2021/05/07 08:51:45;;;;;;;0.93;0.65;;;;;;;16.05;31.48;99944.80;1699136;83;21204;-80
2021/05/07 08:54:13;;;;;;;1.75;0.65;;;;;;;16.11;31.54;99943.89;1706811;83;21610;-82
2021/05/07 08:56:41;;;;;;;3.40;0.23;;;;;;;16.11;31.39;99939.32;1672956;83;21066;-78
2021/05/07 08:59:08;;;;;;;4.90;0.28;;;;;;;16.10;31.66;99948.96;1677710;84;21233;-79
2021/05/07 09:01:45;;;;;;;2.47;0.20;;;;;;;16.03;31.54;99943.72;1685038;83;21114;-78
2021/05/07 09:04:16;;;;;;;5.67;0.13;;;;;;;16.03;31.29;99941.53;1673630;84;21301;-79
2021/05/07 09:06:52;;;;;;;3.30;0.10;;;;;;;16.01;31.60;99941.80;1668109;84;21338;-78
2021/05/07 09:12:02;;;;;;;0.68;0.13;;;;;;;16.15;31.60;99929.73;1781962;79;22964;-81
2021/05/07 09:14:30;;;;;;;1.60;0.10;;;;;;;16.19;31.76;99930.61;1702540;82;21206;-81
2021/05/07 09:17:03;;;;;;;2.75;0.30;;;;;;;16.25;31.57;99932.35;1696532;83;21195;-79
2021/05/07 09:19:35;;;;;;;3.90;0.20;;;;;;;16.31;31.64;99934.09;1707046;83;21188;-82
2021/05/07 09:22:01;;;;;;;0.20;0.20;;;;;;;16.38;31.51;99921.88;1704476;82;21405;-83
2021/05/07 09:24:40;;;;;;;1.60;0.35;;;;;;;16.43;31.25;99919.30;1694103;82;21606;-82
2021/05/07 09:27:07;;;;;;;4.45;0.10;;;;;;;16.47;31.08;99911.04;1698839;83;21158;-81
2021/05/07 09:29:35;;;;;;;3.20;0.20;;;;;;;16.49;30.87;99893.59;1705339;82;21191;-83
2021/05/07 09:32:04;;;;;;;1.60;0.13;;;;;;;16.44;31.34;99900.21;1697459;83;21373;-81
2021/05/07 09:34:38;;;;;;;3.15;0.53;;;;;;;16.52;31.38;99891.78;1701165;82;21106;-83
2021/05/07 09:40:17;;;;;;;0.40;0.20;;;;;;;16.73;31.84;99885.46;1809560;78;23104;-83
2021/05/07 09:42:47;;;;;;;1.55;0.10;;;;;;;16.76;31.89;99886.31;1763856;79;21206;-82
2021/05/07 09:45:25;;;;;;;3.15;0.20;;;;;;;16.85;31.27;99896.20;1711917;79;21179;-85
2021/05/07 09:47:54;;;;;;;2.62;0.30;;;;;;;16.79;31.49;99883.15;1687047;84;21203;-84
2021/05/07 09:53:18;;;;;;;2.10;0.20;;;;;;;16.83;31.72;99873.56;1767966;79;23423;-93
2021/05/07 09:56:01;;;;;;;2.75;0.20;;;;;;;16.83;31.96;99878.95;1729990;81;21048;-84
2021/05/07 09:58:28;;;;;;;3.10;0.23;;;;;;;16.90;32.30;99858.09;1724668;80;21167;-84
2021/05/07 10:00:57;;;;;;;4.92;0.10;;;;;;;17.00;32.53;99868.75;1730341;80;21072;-85
2021/05/07 10:03:24;;;;;;;0.72;0.10;;;;;;;17.09;32.03;99886.95;1749494;80;21724;-86
2021/05/07 10:05:52;;;;;;;1.65;0.20;;;;;;;17.03;32.12;99871.78;1725558;82;21191;-85
2021/05/07 10:08:20;;;;;;;0.30;0.10;;;;;;;16.94;32.74;99878.61;1738925;82;21175;-84
2021/05/07 10:10:49;;;;;;;2.12;0.50;;;;;;;16.89;32.33;99868.55;1728117;80;21220;-85
2021/05/07 10:13:29;;;;;;;0.20;0.15;;;;;;;16.64;33.00;99859.98;1690453;81;21157;-85
2021/05/07 10:16:10;;;;;;;0.45;0.15;;;;;;;16.41;33.17;99864.92;1676909;84;21213;-86
2021/05/07 10:18:40;;;;;;;0.55;0.10;;;;;;;16.30;33.67;99855.83;1679711;84;21255;-84
2021/05/07 10:21:12;;;;;;;0.85;0.10;;;;;;;16.30;34.01;99851.80;1669789;84;21204;-85
2021/05/07 10:23:53;;;;;;;0.42;0.20;;;;;;;16.30;33.96;99853.14;1672805;83;21060;-86
2021/05/07 10:26:39;;;;;;;1.05;0.10;;;;;;;16.24;33.13;99835.27;1669831;84;21195;-85
2021/05/07 10:29:25;;;;;;;0.30;0.10;;;;;;;16.24;33.33;99829.89;1676664;84;21399;-86
2021/05/07 10:31:56;;;;;;;1.05;0.10;;;;;;;16.31;33.30;99822.48;1683446;84;21662;-85
2021/05/07 10:34:27;;;;;;;0.45;0.28;;;;;;;16.32;33.42;99810.14;1694161;82;22063;-85
2021/05/07 10:37:01;;;;;;;4.72;0.20;;;;;;;16.54;33.18;99817.57;1693757;83;21196;-84
2021/05/07 10:39:34;;;;;;;1.12;0.30;;;;;;;16.66;33.14;99815.63;1648362;85;21195;-83
2021/05/07 10:42:02;;;;;;;3.83;0.10;;;;;;;16.77;32.95;99803.19;1675223;84;21206;-87
2021/05/07 10:44:42;;;;;;;3.58;0.20;;;;;;;16.86;32.77;99816.56;1677744;84;21260;-87
2021/05/07 10:47:10;;;;;;;1.67;0.10;;;;;;;16.86;32.45;99810.37;1688355;83;21529;-87
2021/05/07 10:49:41;;;;;;;0.33;0.20;;;;;;;16.83;31.86;99787.43;1646538;85;21223;-88
2021/05/07 10:52:11;;;;;;;2.72;0.10;;;;;;;16.85;31.97;99786.66;1646269;85;21187;-88
2021/05/07 10:54:46;;;;;;;1.52;0.10;;;;;;;16.87;31.74;99791.80;1643155;85;21779;-88
2021/05/07 10:57:26;;;;;;;0.40;0.20;;;;;;;16.91;31.83;99784.36;1656711;84;21309;-87
2021/05/07 11:00:16;;;;;;;0.98;0.10;;;;;;;16.98;31.86;99795.49;1729172;79;22984;-86
2021/05/07 11:02:47;;;;;;;1.32;0.20;;;;;;;16.95;32.02;99775.78;1666627;84;21362;-87
2021/05/07 11:05:38;;;;;;;3.95;0.20;;;;;;;16.97;32.22;99782.57;1662972;84;21199;-88
2021/05/07 11:08:07;;;;;;;2.05;0.30;;;;;;;17.05;32.08;99773.27;1659324;84;21350;-86
2021/05/07 11:10:34;;;;;;;1.62;0.20;;;;;;;17.06;31.96;99762.77;1634233;86;21297;-87
2021/05/07 11:13:02;;;;;;;4.20;0.40;;;;;;;17.11;31.97;99748.05;1600915;83;21113;-85
2021/05/07 11:15:31;;;;;;;4.37;0.35;;;;;;;17.20;31.67;99750.61;1588063;88;21214;-86
2021/05/07 11:20:49;;;;;;;0.78;0.30;;;;;;;17.60;30.45;99714.52;1774483;79;22759;-84
2021/05/07 11:23:17;;;;;;;2.12;0.28;;;;;;;17.60;30.45;99714.52;1716480;82;21111;-84
2021/05/07 11:25:44;;;;;;;2.00;0.20;;;;;;;17.78;30.19;99728.75;1707194;83;21209;-87
2021/05/07 11:28:18;;;;;;;4.75;0.53;;;;;;;17.90;30.02;99717.35;1698793;83;21210;-86
2021/05/07 11:30:55;;;;;;;3.05;0.33;;;;;;;17.99;29.75;99702.88;1699843;83;21673;-85
2021/05/07 11:33:26;;;;;;;3.12;0.72;;;;;;;17.99;29.75;99702.88;1698789;82;21212;-86
2021/05/07 11:36:13;;;;;;;3.15;0.40;;;;;;;18.05;29.84;99697.30;1695264;83;21186;-87
2021/05/07 11:38:42;;;;;;;4.05;0.40;;;;;;;18.05;30.10;99705.39;1700881;83;21232;-84
2021/05/07 11:41:24;;;;;;;4.70;0.20;;;;;;;18.08;29.71;99681.97;1708985;83;21194;-87
2021/05/07 11:43:54;;;;;;;1.47;0.20;;;;;;;18.02;29.83;99682.96;1690250;83;21207;-86
2021/05/07 11:46:22;;;;;;;3.02;0.30;;;;;;;17.96;29.99;99685.88;1690274;83;21100;-86
2021/05/07 11:48:51;;;;;;;0.90;0.10;;;;;;;17.92;29.89;99671.27;1647653;85;21674;-87
2021/05/07 11:51:22;;;;;;;3.35;0.23;;;;;;;17.90;29.99;99687.70;1647266;85;21215;-88
2021/05/07 11:53:58;;;;;;;2.00;0.10;;;;;;;17.89;30.02;99687.40;1652128;85;21333;-86
2021/05/07 11:56:26;;;;;;;2.52;0.10;;;;;;;17.88;29.94;99673.66;1662639;84;21072;-88
2021/05/07 11:58:54;;;;;;;3.02;0.37;;;;;;;17.93;30.21;99674.23;1721054;82;21171;-86
2021/05/07 12:01:24;;;;;;;7.62;0.33;;;;;;;17.97;30.21;99654.62;1696817;83;21316;-88
2021/05/07 12:03:53;;;;;;;2.50;0.42;;;;;;;18.04;29.85;99663.84;1690977;83;21202;-86
2021/05/07 12:06:28;;;;;;;1.35;0.25;;;;;;;18.01;29.89;99654.38;1694501;82;21317;-86
2021/05/07 12:09:09;;;;;;;4.62;0.35;;;;;;;18.07;30.23;99651.20;1708143;82;21187;-86
2021/05/07 12:11:37;;;;;;;1.30;0.20;;;;;;;18.13;30.26;99647.48;1694896;83;21550;-88
2021/05/07 12:14:14;;;;;;;4.45;0.28;;;;;;;18.06;30.66;99668.44;1691088;83;21349;-86
2021/05/07 12:16:41;;;;;;;9.08;0.65;;;;;;;18.06;31.05;99650.91;1656935;85;21173;-86
2021/05/07 12:19:19;;;;;;;3.00;0.35;;;;;;;18.07;31.42;99649.86;1656549;85;21190;-86
2021/05/07 12:21:47;;;;;;;;;;;;;;;18.04;31.42;99656.55;1646859;85;21198;-88
2021/05/07 12:24:27;;;;;;;3.92;0.42;;;;;;;18.00;31.43;99644.66;1696424;83;20299;-85
2021/05/07 12:26:57;;;;;;;2.37;0.10;;;;;;;17.87;31.81;99663.92;1694728;84;21163;-88
2021/05/07 12:29:35;;;;;;;0.40;0.25;;;;;;;17.81;32.13;99618.55;1692907;83;21334;-86
2021/05/07 12:32:04;;;;;;;2.15;0.33;;;;;;;17.83;32.66;99627.73;1690148;84;21642;-87
2021/05/07 12:34:31;;;;;;;4.70;0.60;;;;;;;17.87;32.73;99612.70;1668559;83;21736;-89
2021/05/07 12:37:03;;;;;;;1.75;0.10;;;;;;;17.93;33.04;99607.64;1656328;85;21585;-86